SBUL/UDI METAR and TAF weather

Enter ICAO airport designator
Station Type Date Time Source
SBUL METAR 2022/10/01 09:00 UTC NOAA

SBUL 010900Z 06010KT CAVOK 18/16 Q1019


Station Type Date Time Source
SBUL Decoded METAR 2022/10/01 09:00 UTC NOAA

Uberlandia , Brazil (SBUL) 18-53S 048-14W
Oct 01, 2022 - 05:00 AM EDT / 2022.10.01 0900 UTC
Wind: from the ENE (060 degrees) at 12 MPH (10 KT):0
Visibility: greater than 7 mile(s):0
Temperature: 64 F (18 C)
Dew Point: 60 F (16 C)
Relative Humidity: 88%
Pressure (altimeter): 30.09 in. Hg (1019 hPa)
ob: SBUL 010900Z 06010KT CAVOK 18/16 Q1019
cycle: 9

Station Type Date Time Source
SBUL TAF 2022/10/01 06:30 UTC NOAA

TAF SBUL 010200Z 0106/0118 08005KT 8000 NSC TN19/0109Z TX30/0117Z PROB30 0106/0110 6000 RA BKN003
BECMG 0111/0113 03012KT
BECMG 0114/0116 33006KT FEW035 FEW040TCU
TEMPO 0117/0118 TSRA SCT035 FEW040CB
RMK PGH

Example: see airport list